sensor_id;sensor_type;location;lat;lon;timestamp;P1;durP1;ratioP1;P2;durP2;ratioP2
53389;SDS011;39288;42.970;1.524;2023-07-02T00:00:44;3.50;;;1.50;;
53389;SDS011;39288;42.970;1.524;2023-07-02T00:01:44;3.67;;;1.17;;
53389;SDS011;39288;42.970;1.524;2023-07-02T00:02:45;3.00;;;1.20;;
53389;SDS011;39288;42.970;1.524;2023-07-02T00:03:46;3.63;;;1.40;;
53389;SDS011;39288;42.970;1.524;2023-07-02T00:04:46;3.73;;;1.30;;
53389;SDS011;39288;42.970;1.524;2023-07-02T00:05:47;4.23;;;1.50;;
53389;SDS011;39288;42.970;1.524;2023-07-02T00:06:51;2.88;;;1.45;;
53389;SDS011;39288;42.970;1.524;2023-07-02T00:07:51;3.43;;;1.30;;
53389;SDS011;39288;42.970;1.524;2023-07-02T00:08:51;4.30;;;1.50;;
53389;SDS011;39288;42.970;1.524;2023-07-02T00:09:52;4.63;;;1.53;;
53389;SDS011;39288;42.970;1.524;2023-07-02T00:10:53;3.73;;;1.47;;
53389;SDS011;39288;42.970;1.524;2023-07-02T00:11:53;5.60;;;1.80;;
53389;SDS011;39288;42.970;1.524;2023-07-02T00:12:54;3.37;;;1.50;;
53389;SDS011;39288;42.970;1.524;2023-07-02T00:13:54;7.27;;;2.03;;
53389;SDS011;39288;42.970;1.524;2023-07-02T00:14:55;3.63;;;1.60;;
53389;SDS011;39288;42.970;1.524;2023-07-02T00:15:55;4.67;;;1.40;;
53389;SDS011;39288;42.970;1.524;2023-07-02T00:16:55;4.33;;;1.40;;
53389;SDS011;39288;42.970;1.524;2023-07-02T00:17:56;3.50;;;1.57;;
53389;SDS011;39288;42.970;1.524;2023-07-02T00:18:57;3.80;;;1.23;;
53389;SDS011;39288;42.970;1.524;2023-07-02T00:19:57;3.30;;;1.53;;
53389;SDS011;39288;42.970;1.524;2023-07-02T00:21:06;5.13;;;2.00;;
53389;SDS011;39288;42.970;1.524;2023-07-02T00:22:07;4.27;;;1.93;;
53389;SDS011;39288;42.970;1.524;2023-07-02T00:23:09;3.55;;;1.58;;
53389;SDS011;39288;42.970;1.524;2023-07-02T00:24:10;3.97;;;1.80;;
53389;SDS011;39288;42.970;1.524;2023-07-02T00:25:11;4.17;;;1.50;;
53389;SDS011;39288;42.970;1.524;2023-07-02T00:26:13;5.00;;;1.48;;
53389;SDS011;39288;42.970;1.524;2023-07-02T00:27:14;4.88;;;2.13;;
53389;SDS011;39288;42.970;1.524;2023-07-02T00:28:14;4.17;;;2.00;;
53389;SDS011;39288;42.970;1.524;2023-07-02T00:29:14;4.60;;;1.50;;
53389;SDS011;39288;42.970;1.524;2023-07-02T00:30:15;4.40;;;1.93;;
53389;SDS011;39288;42.970;1.524;2023-07-02T00:31:16;5.87;;;1.50;;
53389;SDS011;39288;42.970;1.524;2023-07-02T00:32:16;4.27;;;1.70;;
53389;SDS011;39288;42.970;1.524;2023-07-02T00:33:16;2.93;;;1.80;;
53389;SDS011;39288;42.970;1.524;2023-07-02T00:34:17;3.00;;;1.60;;
53389;SDS011;39288;42.970;1.524;2023-07-02T00:35:18;6.70;;;1.67;;
53389;SDS011;39288;42.970;1.524;2023-07-02T00:36:19;6.37;;;1.90;;
53389;SDS011;39288;42.970;1.524;2023-07-02T00:37:19;5.10;;;1.70;;
53389;SDS011;39288;42.970;1.524;2023-07-02T00:38:20;6.37;;;2.20;;
53389;SDS011;39288;42.970;1.524;2023-07-02T00:39:20;3.73;;;1.43;;
53389;SDS011;39288;42.970;1.524;2023-07-02T00:40:21;6.10;;;1.83;;
53389;SDS011;39288;42.970;1.524;2023-07-02T00:41:21;2.63;;;1.60;;
53389;SDS011;39288;42.970;1.524;2023-07-02T00:42:22;4.40;;;1.63;;
53389;SDS011;39288;42.970;1.524;2023-07-02T00:43:23;7.25;;;1.85;;
53389;SDS011;39288;42.970;1.524;2023-07-02T00:44:24;5.83;;;1.80;;
53389;SDS011;39288;42.970;1.524;2023-07-02T00:45:24;6.87;;;2.17;;
53389;SDS011;39288;42.970;1.524;2023-07-02T00:46:27;6.82;;;1.90;;
53389;SDS011;39288;42.970;1.524;2023-07-02T00:47:29;5.63;;;2.07;;
53389;SDS011;39288;42.970;1.524;2023-07-02T00:48:30;4.97;;;2.22;;
53389;SDS011;39288;42.970;1.524;2023-07-02T00:49:32;5.22;;;2.20;;
53389;SDS011;39288;42.970;1.524;2023-07-02T00:50:32;5.77;;;2.43;;
53389;SDS011;39288;42.970;1.524;2023-07-02T00:51:33;5.13;;;2.37;;
53389;SDS011;39288;42.970;1.524;2023-07-02T00:52:33;5.67;;;2.20;;
53389;SDS011;39288;42.970;1.524;2023-07-02T00:53:34;4.10;;;1.70;;
53389;SDS011;39288;42.970;1.524;2023-07-02T00:54:34;5.13;;;1.90;;
53389;SDS011;39288;42.970;1.524;2023-07-02T00:55:35;4.43;;;2.00;;
53389;SDS011;39288;42.970;1.524;2023-07-02T00:56:36;5.60;;;1.87;;
53389;SDS011;39288;42.970;1.524;2023-07-02T00:57:36;5.43;;;2.03;;
53389;SDS011;39288;42.970;1.524;2023-07-02T00:58:41;6.00;;;2.20;;
53389;SDS011;39288;42.970;1.524;2023-07-02T00:59:51;4.28;;;2.08;;
53389;SDS011;39288;42.970;1.524;2023-07-02T01:00:52;6.00;;;2.53;;
53389;SDS011;39288;42.970;1.524;2023-07-02T01:01:56;3.88;;;2.03;;
53389;SDS011;39288;42.970;1.524;2023-07-02T01:02:56;6.67;;;2.37;;
53389;SDS011;39288;42.970;1.524;2023-07-02T01:04:02;5.72;;;2.50;;
53389;SDS011;39288;42.970;1.524;2023-07-02T01:05:04;5.45;;;2.45;;
53389;SDS011;39288;42.970;1.524;2023-07-02T01:06:04;6.47;;;2.40;;
53389;SDS011;39288;42.970;1.524;2023-07-02T01:07:05;6.57;;;2.50;;
53389;SDS011;39288;42.970;1.524;2023-07-02T01:08:11;5.88;;;2.28;;
53389;SDS011;39288;42.970;1.524;2023-07-02T01:09:12;5.47;;;2.47;;
53389;SDS011;39288;42.970;1.524;2023-07-02T01:10:12;4.43;;;2.00;;
53389;SDS011;39288;42.970;1.524;2023-07-02T01:11:13;5.87;;;2.57;;
53389;SDS011;39288;42.970;1.524;2023-07-02T01:12:13;5.67;;;2.40;;
53389;SDS011;39288;42.970;1.524;2023-07-02T01:13:16;8.43;;;2.53;;
53389;SDS011;39288;42.970;1.524;2023-07-02T01:15:34;6.00;;;2.00;;
53389;SDS011;39288;42.970;1.524;2023-07-02T01:16:35;7.38;;;2.42;;
53389;SDS011;39288;42.970;1.524;2023-07-02T01:17:36;6.07;;;2.10;;
53389;SDS011;39288;42.970;1.524;2023-07-02T01:18:41;6.35;;;2.33;;
53389;SDS011;39288;42.970;1.524;2023-07-02T01:19:46;7.70;;;2.30;;
53389;SDS011;39288;42.970;1.524;2023-07-02T01:20:52;7.35;;;3.05;;
53389;SDS011;39288;42.970;1.524;2023-07-02T01:21:53;9.70;;;2.13;;
53389;SDS011;39288;42.970;1.524;2023-07-02T01:22:54;7.93;;;2.73;;
53389;SDS011;39288;42.970;1.524;2023-07-02T01:23:54;8.70;;;2.40;;
53389;SDS011;39288;42.970;1.524;2023-07-02T01:24:55;4.93;;;2.23;;
53389;SDS011;39288;42.970;1.524;2023-07-02T01:25:56;8.50;;;2.47;;
53389;SDS011;39288;42.970;1.524;2023-07-02T01:26:58;5.07;;;2.47;;
53389;SDS011;39288;42.970;1.524;2023-07-02T01:28:01;4.57;;;2.40;;
53389;SDS011;39288;42.970;1.524;2023-07-02T01:29:17;6.07;;;2.42;;
53389;SDS011;39288;42.970;1.524;2023-07-02T01:30:19;8.05;;;2.55;;
53389;SDS011;39288;42.970;1.524;2023-07-02T01:31:20;8.27;;;2.97;;
53389;SDS011;39288;42.970;1.524;2023-07-02T01:32:24;6.80;;;2.50;;
53389;SDS011;39288;42.970;1.524;2023-07-02T01:33:25;5.17;;;2.23;;
53389;SDS011;39288;42.970;1.524;2023-07-02T01:34:26;5.47;;;2.50;;
53389;SDS011;39288;42.970;1.524;2023-07-02T01:35:26;3.77;;;2.30;;
53389;SDS011;39288;42.970;1.524;2023-07-02T01:36:27;8.13;;;2.80;;
53389;SDS011;39288;42.970;1.524;2023-07-02T01:37:27;6.07;;;2.50;;
53389;SDS011;39288;42.970;1.524;2023-07-02T01:38:27;4.87;;;2.40;;
53389;SDS011;39288;42.970;1.524;2023-07-02T01:39:28;5.97;;;2.40;;
53389;SDS011;39288;42.970;1.524;2023-07-02T01:40:28;4.00;;;2.40;;
53389;SDS011;39288;42.970;1.524;2023-07-02T01:43:09;4.38;;;2.22;;
53389;SDS011;39288;42.970;1.524;2023-07-02T01:44:10;5.73;;;2.70;;
53389;SDS011;39288;42.970;1.524;2023-07-02T01:45:11;6.47;;;2.58;;
53389;SDS011;39288;42.970;1.524;2023-07-02T01:46:11;5.30;;;2.10;;
53389;SDS011;39288;42.970;1.524;2023-07-02T01:47:12;3.90;;;2.47;;
53389;SDS011;39288;42.970;1.524;2023-07-02T01:48:12;7.20;;;3.00;;
53389;SDS011;39288;42.970;1.524;2023-07-02T01:49:13;4.47;;;2.37;;
53389;SDS011;39288;42.970;1.524;2023-07-02T01:50:14;6.30;;;2.30;;
53389;SDS011;39288;42.970;1.524;2023-07-02T01:51:14;7.80;;;2.57;;
53389;SDS011;39288;42.970;1.524;2023-07-02T01:52:14;4.33;;;2.57;;
53389;SDS011;39288;42.970;1.524;2023-07-02T01:53:15;5.70;;;2.40;;
53389;SDS011;39288;42.970;1.524;2023-07-02T01:54:17;5.60;;;2.33;;
53389;SDS011;39288;42.970;1.524;2023-07-02T01:55:17;4.45;;;2.33;;
53389;SDS011;39288;42.970;1.524;2023-07-02T01:56:18;6.57;;;2.43;;
53389;SDS011;39288;42.970;1.524;2023-07-02T01:57:19;3.57;;;1.90;;
53389;SDS011;39288;42.970;1.524;2023-07-02T01:58:19;6.27;;;2.53;;
53389;SDS011;39288;42.970;1.524;2023-07-02T01:59:20;6.40;;;1.90;;
53389;SDS011;39288;42.970;1.524;2023-07-02T02:00:21;6.03;;;2.30;;
53389;SDS011;39288;42.970;1.524;2023-07-02T02:01:21;4.53;;;2.10;;
53389;SDS011;39288;42.970;1.524;2023-07-02T02:02:21;3.57;;;2.03;;
53389;SDS011;39288;42.970;1.524;2023-07-02T02:03:22;5.17;;;2.20;;
53389;SDS011;39288;42.970;1.524;2023-07-02T02:04:23;4.87;;;2.10;;
53389;SDS011;39288;42.970;1.524;2023-07-02T02:05:23;4.80;;;2.00;;
53389;SDS011;39288;42.970;1.524;2023-07-02T02:06:23;5.87;;;2.50;;
53389;SDS011;39288;42.970;1.524;2023-07-02T02:07:24;4.93;;;2.10;;
53389;SDS011;39288;42.970;1.524;2023-07-02T02:08:25;4.07;;;2.17;;
53389;SDS011;39288;42.970;1.524;2023-07-02T02:09:26;4.70;;;1.93;;
53389;SDS011;39288;42.970;1.524;2023-07-02T02:10:28;6.85;;;2.35;;
53389;SDS011;39288;42.970;1.524;2023-07-02T02:11:28;5.97;;;2.07;;
53389;SDS011;39288;42.970;1.524;2023-07-02T02:12:29;8.90;;;2.60;;
53389;SDS011;39288;42.970;1.524;2023-07-02T02:13:30;7.05;;;2.30;;
53389;SDS011;39288;42.970;1.524;2023-07-02T02:14:30;8.97;;;2.27;;
53389;SDS011;39288;42.970;1.524;2023-07-02T02:15:32;7.28;;;2.47;;
53389;SDS011;39288;42.970;1.524;2023-07-02T02:16:32;5.60;;;2.30;;
53389;SDS011;39288;42.970;1.524;2023-07-02T02:17:36;8.10;;;2.50;;
53389;SDS011;39288;42.970;1.524;2023-07-02T02:18:36;6.47;;;2.50;;
53389;SDS011;39288;42.970;1.524;2023-07-02T02:19:36;5.10;;;2.40;;
53389;SDS011;39288;42.970;1.524;2023-07-02T02:20:37;6.40;;;2.37;;
53389;SDS011;39288;42.970;1.524;2023-07-02T02:21:38;19.70;;;3.58;;
53389;SDS011;39288;42.970;1.524;2023-07-02T02:22:38;8.17;;;2.30;;
53389;SDS011;39288;42.970;1.524;2023-07-02T02:23:39;7.10;;;2.47;;
53389;SDS011;39288;42.970;1.524;2023-07-02T02:24:39;5.93;;;2.43;;
53389;SDS011;39288;42.970;1.524;2023-07-02T02:25:40;6.13;;;2.37;;
53389;SDS011;39288;42.970;1.524;2023-07-02T02:26:40;4.27;;;2.30;;
53389;SDS011;39288;42.970;1.524;2023-07-02T02:27:41;5.50;;;2.30;;
53389;SDS011;39288;42.970;1.524;2023-07-02T02:28:43;5.95;;;2.13;;
53389;SDS011;39288;42.970;1.524;2023-07-02T02:29:43;7.30;;;2.30;;
53389;SDS011;39288;42.970;1.524;2023-07-02T02:30:44;4.73;;;2.67;;
53389;SDS011;39288;42.970;1.524;2023-07-02T02:31:44;6.20;;;2.30;;
53389;SDS011;39288;42.970;1.524;2023-07-02T02:32:45;8.33;;;2.50;;
53389;SDS011;39288;42.970;1.524;2023-07-02T02:33:45;5.00;;;2.43;;
53389;SDS011;39288;42.970;1.524;2023-07-02T02:34:46;6.97;;;2.67;;
53389;SDS011;39288;42.970;1.524;2023-07-02T02:35:46;5.80;;;2.27;;
53389;SDS011;39288;42.970;1.524;2023-07-02T02:36:48;5.35;;;2.50;;
53389;SDS011;39288;42.970;1.524;2023-07-02T02:37:49;5.50;;;2.03;;
53389;SDS011;39288;42.970;1.524;2023-07-02T02:38:49;7.80;;;1.97;;
53389;SDS011;39288;42.970;1.524;2023-07-02T02:39:50;3.93;;;1.77;;
53389;SDS011;39288;42.970;1.524;2023-07-02T02:40:50;5.30;;;2.07;;
53389;SDS011;39288;42.970;1.524;2023-07-02T02:41:51;6.47;;;2.43;;
53389;SDS011;39288;42.970;1.524;2023-07-02T02:42:51;7.33;;;2.43;;
53389;SDS011;39288;42.970;1.524;2023-07-02T02:43:51;5.40;;;2.10;;
53389;SDS011;39288;42.970;1.524;2023-07-02T02:44:52;5.07;;;2.37;;
53389;SDS011;39288;42.970;1.524;2023-07-02T02:45:52;5.83;;;2.60;;
53389;SDS011;39288;42.970;1.524;2023-07-02T02:46:53;6.90;;;2.70;;
53389;SDS011;39288;42.970;1.524;2023-07-02T02:47:53;10.40;;;2.03;;
53389;SDS011;39288;42.970;1.524;2023-07-02T02:48:54;6.17;;;2.47;;
53389;SDS011;39288;42.970;1.524;2023-07-02T02:49:54;5.07;;;2.53;;
53389;SDS011;39288;42.970;1.524;2023-07-02T02:50:54;5.97;;;2.50;;
53389;SDS011;39288;42.970;1.524;2023-07-02T02:51:55;9.07;;;2.43;;
53389;SDS011;39288;42.970;1.524;2023-07-02T02:52:55;5.30;;;2.63;;
53389;SDS011;39288;42.970;1.524;2023-07-02T02:53:56;3.90;;;2.03;;
53389;SDS011;39288;42.970;1.524;2023-07-02T02:54:56;6.07;;;2.10;;
53389;SDS011;39288;42.970;1.524;2023-07-02T02:55:57;5.33;;;2.17;;
53389;SDS011;39288;42.970;1.524;2023-07-02T02:56:57;4.17;;;1.93;;
53389;SDS011;39288;42.970;1.524;2023-07-02T02:57:58;7.20;;;2.40;;
53389;SDS011;39288;42.970;1.524;2023-07-02T02:58:59;8.00;;;2.45;;
53389;SDS011;39288;42.970;1.524;2023-07-02T02:59:59;5.23;;;2.37;;
53389;SDS011;39288;42.970;1.524;2023-07-02T03:01:00;6.53;;;2.57;;
53389;SDS011;39288;42.970;1.524;2023-07-02T03:02:00;5.63;;;2.40;;
53389;SDS011;39288;42.970;1.524;2023-07-02T03:03:00;5.33;;;2.30;;
53389;SDS011;39288;42.970;1.524;2023-07-02T03:04:01;5.22;;;2.25;;
53389;SDS011;39288;42.970;1.524;2023-07-02T03:05:02;5.37;;;2.33;;
53389;SDS011;39288;42.970;1.524;2023-07-02T03:06:02;4.30;;;1.77;;
53389;SDS011;39288;42.970;1.524;2023-07-02T03:07:03;8.03;;;2.30;;
53389;SDS011;39288;42.970;1.524;2023-07-02T03:08:03;3.10;;;1.90;;
53389;SDS011;39288;42.970;1.524;2023-07-02T03:09:04;5.90;;;2.30;;
53389;SDS011;39288;42.970;1.524;2023-07-02T03:10:05;5.60;;;2.57;;
53389;SDS011;39288;42.970;1.524;2023-07-02T03:11:06;3.85;;;2.10;;
53389;SDS011;39288;42.970;1.524;2023-07-02T03:12:06;5.53;;;2.00;;
53389;SDS011;39288;42.970;1.524;2023-07-02T03:13:07;4.70;;;1.88;;
53389;SDS011;39288;42.970;1.524;2023-07-02T03:14:08;3.03;;;1.73;;
53389;SDS011;39288;42.970;1.524;2023-07-02T03:15:08;5.67;;;1.90;;
53389;SDS011;39288;42.970;1.524;2023-07-02T03:16:09;5.93;;;2.42;;
53389;SDS011;39288;42.970;1.524;2023-07-02T03:17:10;5.00;;;2.03;;
53389;SDS011;39288;42.970;1.524;2023-07-02T03:18:10;1.87;;;1.30;;
53389;SDS011;39288;42.970;1.524;2023-07-02T03:19:10;4.97;;;1.70;;
53389;SDS011;39288;42.970;1.524;2023-07-02T03:20:11;4.27;;;1.73;;
53389;SDS011;39288;42.970;1.524;2023-07-02T03:21:11;4.27;;;1.77;;
53389;SDS011;39288;42.970;1.524;2023-07-02T03:22:12;3.47;;;1.63;;
53389;SDS011;39288;42.970;1.524;2023-07-02T03:23:13;5.82;;;2.08;;
53389;SDS011;39288;42.970;1.524;2023-07-02T03:24:13;4.23;;;1.60;;
53389;SDS011;39288;42.970;1.524;2023-07-02T03:25:14;6.63;;;1.47;;
53389;SDS011;39288;42.970;1.524;2023-07-02T03:26:16;4.20;;;1.60;;
53389;SDS011;39288;42.970;1.524;2023-07-02T03:27:16;3.07;;;1.30;;
53389;SDS011;39288;42.970;1.524;2023-07-02T03:28:17;2.73;;;1.40;;
53389;SDS011;39288;42.970;1.524;2023-07-02T03:29:17;8.80;;;1.90;;
53389;SDS011;39288;42.970;1.524;2023-07-02T03:30:20;4.70;;;1.50;;
53389;SDS011;39288;42.970;1.524;2023-07-02T03:31:21;3.47;;;1.23;;
53389;SDS011;39288;42.970;1.524;2023-07-02T03:32:21;5.80;;;1.53;;
53389;SDS011;39288;42.970;1.524;2023-07-02T03:33:22;2.97;;;1.47;;
53389;SDS011;39288;42.970;1.524;2023-07-02T03:34:22;3.40;;;1.63;;
53389;SDS011;39288;42.970;1.524;2023-07-02T03:35:23;3.28;;;1.33;;
53389;SDS011;39288;42.970;1.524;2023-07-02T03:36:24;3.33;;;1.73;;
53389;SDS011;39288;42.970;1.524;2023-07-02T03:37:24;4.20;;;1.33;;
53389;SDS011;39288;42.970;1.524;2023-07-02T03:38:25;3.83;;;1.50;;
53389;SDS011;39288;42.970;1.524;2023-07-02T03:39:25;2.80;;;1.50;;
53389;SDS011;39288;42.970;1.524;2023-07-02T03:40:26;4.87;;;1.63;;
53389;SDS011;39288;42.970;1.524;2023-07-02T03:41:27;5.57;;;1.60;;
53389;SDS011;39288;42.970;1.524;2023-07-02T03:42:28;2.75;;;1.58;;
53389;SDS011;39288;42.970;1.524;2023-07-02T03:43:28;3.37;;;1.70;;
53389;SDS011;39288;42.970;1.524;2023-07-02T03:44:29;2.50;;;1.53;;
53389;SDS011;39288;42.970;1.524;2023-07-02T03:45:29;2.63;;;1.20;;
53389;SDS011;39288;42.970;1.524;2023-07-02T03:46:30;3.13;;;1.37;;
53389;SDS011;39288;42.970;1.524;2023-07-02T03:47:31;3.05;;;1.30;;
53389;SDS011;39288;42.970;1.524;2023-07-02T03:48:31;3.03;;;1.13;;
53389;SDS011;39288;42.970;1.524;2023-07-02T03:49:32;3.47;;;1.07;;
53389;SDS011;39288;42.970;1.524;2023-07-02T03:50:32;3.13;;;1.50;;
53389;SDS011;39288;42.970;1.524;2023-07-02T03:51:33;2.60;;;1.30;;
53389;SDS011;39288;42.970;1.524;2023-07-02T03:52:33;3.63;;;1.40;;
53389;SDS011;39288;42.970;1.524;2023-07-02T03:53:34;4.43;;;1.63;;
53389;SDS011;39288;42.970;1.524;2023-07-02T03:54:34;4.33;;;1.53;;
53389;SDS011;39288;42.970;1.524;2023-07-02T03:55:34;2.90;;;1.33;;
53389;SDS011;39288;42.970;1.524;2023-07-02T03:56:35;6.13;;;1.53;;
53389;SDS011;39288;42.970;1.524;2023-07-02T03:57:35;3.07;;;1.33;;
53389;SDS011;39288;42.970;1.524;2023-07-02T03:58:36;2.40;;;1.40;;
53389;SDS011;39288;42.970;1.524;2023-07-02T03:59:36;4.67;;;1.70;;
53389;SDS011;39288;42.970;1.524;2023-07-02T04:00:37;2.90;;;1.80;;
53389;SDS011;39288;42.970;1.524;2023-07-02T04:01:38;3.30;;;1.40;;
53389;SDS011;39288;42.970;1.524;2023-07-02T04:02:39;3.13;;;1.50;;
53389;SDS011;39288;42.970;1.524;2023-07-02T04:03:41;3.30;;;1.17;;
53389;SDS011;39288;42.970;1.524;2023-07-02T04:04:47;3.05;;;1.25;;
53389;SDS011;39288;42.970;1.524;2023-07-02T04:05:48;2.30;;;1.20;;
53389;SDS011;39288;42.970;1.524;2023-07-02T04:06:48;2.30;;;1.47;;
53389;SDS011;39288;42.970;1.524;2023-07-02T04:07:49;3.73;;;1.40;;
53389;SDS011;39288;42.970;1.524;2023-07-02T04:08:49;2.43;;;1.40;;
53389;SDS011;39288;42.970;1.524;2023-07-02T04:09:50;3.23;;;1.20;;
53389;SDS011;39288;42.970;1.524;2023-07-02T04:10:50;3.53;;;1.50;;
53389;SDS011;39288;42.970;1.524;2023-07-02T04:11:51;2.63;;;1.50;;
53389;SDS011;39288;42.970;1.524;2023-07-02T04:12:51;4.40;;;1.50;;
53389;SDS011;39288;42.970;1.524;2023-07-02T04:13:52;5.27;;;1.60;;
53389;SDS011;39288;42.970;1.524;2023-07-02T04:14:52;5.77;;;1.70;;
53389;SDS011;39288;42.970;1.524;2023-07-02T04:15:53;3.73;;;1.70;;
53389;SDS011;39288;42.970;1.524;2023-07-02T04:16:53;4.47;;;1.97;;
53389;SDS011;39288;42.970;1.524;2023-07-02T04:17:54;3.30;;;1.63;;
53389;SDS011;39288;42.970;1.524;2023-07-02T04:18:55;2.40;;;1.67;;
53389;SDS011;39288;42.970;1.524;2023-07-02T04:19:55;5.77;;;1.83;;
53389;SDS011;39288;42.970;1.524;2023-07-02T04:20:57;2.65;;;1.33;;
53389;SDS011;39288;42.970;1.524;2023-07-02T04:21:58;2.42;;;1.40;;
53389;SDS011;39288;42.970;1.524;2023-07-02T04:22:59;4.70;;;2.37;;
53389;SDS011;39288;42.970;1.524;2023-07-02T04:23:59;3.67;;;1.97;;
53389;SDS011;39288;42.970;1.524;2023-07-02T04:25:00;2.67;;;1.60;;
53389;SDS011;39288;42.970;1.524;2023-07-02T04:26:00;5.30;;;1.70;;
53389;SDS011;39288;42.970;1.524;2023-07-02T04:27:01;3.67;;;1.80;;
53389;SDS011;39288;42.970;1.524;2023-07-02T04:28:01;3.80;;;1.80;;
53389;SDS011;39288;42.970;1.524;2023-07-02T04:29:02;4.20;;;1.50;;
53389;SDS011;39288;42.970;1.524;2023-07-02T04:30:03;4.50;;;1.77;;
53389;SDS011;39288;42.970;1.524;2023-07-02T04:31:03;4.85;;;2.00;;
53389;SDS011;39288;42.970;1.524;2023-07-02T04:32:04;6.33;;;1.93;;
53389;SDS011;39288;42.970;1.524;2023-07-02T04:33:05;4.25;;;1.80;;
53389;SDS011;39288;42.970;1.524;2023-07-02T04:34:05;4.53;;;1.90;;
53389;SDS011;39288;42.970;1.524;2023-07-02T04:35:06;6.60;;;2.33;;
53389;SDS011;39288;42.970;1.524;2023-07-02T04:36:09;5.13;;;1.80;;
53389;SDS011;39288;42.970;1.524;2023-07-02T04:37:10;4.80;;;2.10;;
53389;SDS011;39288;42.970;1.524;2023-07-02T04:38:10;3.80;;;1.97;;
53389;SDS011;39288;42.970;1.524;2023-07-02T04:39:12;5.70;;;2.13;;
53389;SDS011;39288;42.970;1.524;2023-07-02T04:40:12;4.77;;;2.03;;
53389;SDS011;39288;42.970;1.524;2023-07-02T04:41:14;6.15;;;1.98;;
53389;SDS011;39288;42.970;1.524;2023-07-02T04:42:14;5.37;;;2.73;;
53389;SDS011;39288;42.970;1.524;2023-07-02T04:43:15;6.60;;;2.47;;
53389;SDS011;39288;42.970;1.524;2023-07-02T04:44:18;4.80;;;2.08;;
53389;SDS011;39288;42.970;1.524;2023-07-02T04:45:20;5.68;;;2.47;;
53389;SDS011;39288;42.970;1.524;2023-07-02T04:46:21;6.37;;;2.27;;
53389;SDS011;39288;42.970;1.524;2023-07-02T04:47:22;4.07;;;2.10;;
53389;SDS011;39288;42.970;1.524;2023-07-02T04:48:22;3.57;;;2.10;;
53389;SDS011;39288;42.970;1.524;2023-07-02T04:49:23;4.57;;;2.33;;
53389;SDS011;39288;42.970;1.524;2023-07-02T04:50:23;5.50;;;2.20;;
53389;SDS011;39288;42.970;1.524;2023-07-02T04:51:24;6.20;;;2.40;;
53389;SDS011;39288;42.970;1.524;2023-07-02T04:52:24;3.23;;;1.90;;
53389;SDS011;39288;42.970;1.524;2023-07-02T04:53:24;5.30;;;2.50;;
53389;SDS011;39288;42.970;1.524;2023-07-02T04:54:25;7.00;;;3.00;;
53389;SDS011;39288;42.970;1.524;2023-07-02T04:55:25;4.93;;;2.27;;
53389;SDS011;39288;42.970;1.524;2023-07-02T04:56:26;5.23;;;2.30;;
53389;SDS011;39288;42.970;1.524;2023-07-02T04:57:26;5.33;;;2.00;;
53389;SDS011;39288;42.970;1.524;2023-07-02T04:58:28;7.70;;;1.92;;
53389;SDS011;39288;42.970;1.524;2023-07-02T04:59:28;8.20;;;2.47;;
53389;SDS011;39288;42.970;1.524;2023-07-02T05:00:29;6.20;;;2.20;;
53389;SDS011;39288;42.970;1.524;2023-07-02T05:01:29;7.63;;;2.47;;
53389;SDS011;39288;42.970;1.524;2023-07-02T05:02:30;5.10;;;2.10;;
53389;SDS011;39288;42.970;1.524;2023-07-02T05:03:30;4.50;;;2.17;;
53389;SDS011;39288;42.970;1.524;2023-07-02T05:04:30;5.07;;;2.67;;
53389;SDS011;39288;42.970;1.524;2023-07-02T05:05:31;4.37;;;2.03;;
53389;SDS011;39288;42.970;1.524;2023-07-02T05:06:31;5.20;;;1.87;;
53389;SDS011;39288;42.970;1.524;2023-07-02T05:07:32;4.47;;;2.07;;
53389;SDS011;39288;42.970;1.524;2023-07-02T05:08:33;2.80;;;1.73;;
53389;SDS011;39288;42.970;1.524;2023-07-02T05:09:33;5.13;;;2.47;;
53389;SDS011;39288;42.970;1.524;2023-07-02T05:10:34;6.57;;;3.00;;
53389;SDS011;39288;42.970;1.524;2023-07-02T05:11:34;4.53;;;1.80;;
53389;SDS011;39288;42.970;1.524;2023-07-02T05:12:35;6.87;;;2.80;;
53389;SDS011;39288;42.970;1.524;2023-07-02T05:13:35;6.97;;;2.40;;
53389;SDS011;39288;42.970;1.524;2023-07-02T05:14:35;8.03;;;2.87;;
53389;SDS011;39288;42.970;1.524;2023-07-02T05:15:36;5.20;;;2.53;;
53389;SDS011;39288;42.970;1.524;2023-07-02T05:16:36;6.30;;;2.50;;
53389;SDS011;39288;42.970;1.524;2023-07-02T05:17:37;5.23;;;2.23;;
53389;SDS011;39288;42.970;1.524;2023-07-02T05:18:37;7.53;;;2.20;;
53389;SDS011;39288;42.970;1.524;2023-07-02T05:19:38;5.13;;;2.60;;
53389;SDS011;39288;42.970;1.524;2023-07-02T05:20:40;5.13;;;2.63;;
53389;SDS011;39288;42.970;1.524;2023-07-02T05:21:41;5.93;;;2.43;;
53389;SDS011;39288;42.970;1.524;2023-07-02T05:22:42;6.70;;;2.40;;
53389;SDS011;39288;42.970;1.524;2023-07-02T05:23:42;5.33;;;2.23;;
53389;SDS011;39288;42.970;1.524;2023-07-02T05:24:43;4.80;;;2.10;;
53389;SDS011;39288;42.970;1.524;2023-07-02T05:25:44;5.20;;;2.33;;
53389;SDS011;39288;42.970;1.524;2023-07-02T05:26:46;5.10;;;2.60;;
53389;SDS011;39288;42.970;1.524;2023-07-02T05:27:46;5.27;;;2.10;;
53389;SDS011;39288;42.970;1.524;2023-07-02T05:28:46;6.57;;;2.27;;
53389;SDS011;39288;42.970;1.524;2023-07-02T05:29:48;7.68;;;2.75;;
53389;SDS011;39288;42.970;1.524;2023-07-02T05:30:48;7.30;;;2.60;;
53389;SDS011;39288;42.970;1.524;2023-07-02T05:31:49;4.63;;;2.10;;
53389;SDS011;39288;42.970;1.524;2023-07-02T05:32:49;4.93;;;2.30;;
53389;SDS011;39288;42.970;1.524;2023-07-02T05:33:50;7.27;;;2.27;;
53389;SDS011;39288;42.970;1.524;2023-07-02T05:34:50;6.93;;;2.40;;
53389;SDS011;39288;42.970;1.524;2023-07-02T05:35:51;5.13;;;1.93;;
53389;SDS011;39288;42.970;1.524;2023-07-02T05:36:51;4.67;;;2.57;;
53389;SDS011;39288;42.970;1.524;2023-07-02T05:37:52;7.33;;;2.10;;
53389;SDS011;39288;42.970;1.524;2023-07-02T05:38:52;7.23;;;2.30;;
53389;SDS011;39288;42.970;1.524;2023-07-02T05:39:52;7.17;;;2.97;;
53389;SDS011;39288;42.970;1.524;2023-07-02T05:40:53;5.03;;;1.97;;
53389;SDS011;39288;42.970;1.524;2023-07-02T05:41:54;5.53;;;2.13;;
53389;SDS011;39288;42.970;1.524;2023-07-02T05:42:54;4.43;;;1.73;;
53389;SDS011;39288;42.970;1.524;2023-07-02T05:43:55;3.67;;;1.90;;
53389;SDS011;39288;42.970;1.524;2023-07-02T05:44:55;3.07;;;1.73;;
53389;SDS011;39288;42.970;1.524;2023-07-02T05:45:57;5.07;;;2.10;;
53389;SDS011;39288;42.970;1.524;2023-07-02T05:47:00;6.30;;;2.00;;
53389;SDS011;39288;42.970;1.524;2023-07-02T05:48:00;4.03;;;1.90;;
53389;SDS011;39288;42.970;1.524;2023-07-02T05:49:01;3.83;;;1.80;;
53389;SDS011;39288;42.970;1.524;2023-07-02T05:50:01;6.97;;;2.00;;
53389;SDS011;39288;42.970;1.524;2023-07-02T05:51:02;5.93;;;2.07;;
53389;SDS011;39288;42.970;1.524;2023-07-02T05:52:02;5.13;;;2.00;;
53389;SDS011;39288;42.970;1.524;2023-07-02T05:53:03;6.00;;;2.08;;
53389;SDS011;39288;42.970;1.524;2023-07-02T05:54:04;4.63;;;2.00;;
53389;SDS011;39288;42.970;1.524;2023-07-02T05:55:05;3.40;;;1.60;;
53389;SDS011;39288;42.970;1.524;2023-07-02T05:56:07;5.47;;;1.50;;
53389;SDS011;39288;42.970;1.524;2023-07-02T05:57:07;5.57;;;2.50;;
53389;SDS011;39288;42.970;1.524;2023-07-02T05:58:08;4.30;;;1.77;;
53389;SDS011;39288;42.970;1.524;2023-07-02T05:59:08;4.10;;;1.60;;
53389;SDS011;39288;42.970;1.524;2023-07-02T06:00:09;2.60;;;1.57;;
53389;SDS011;39288;42.970;1.524;2023-07-02T06:01:10;3.33;;;1.60;;
53389;SDS011;39288;42.970;1.524;2023-07-02T06:02:10;4.83;;;1.47;;
53389;SDS011;39288;42.970;1.524;2023-07-02T06:03:12;5.20;;;1.70;;
53389;SDS011;39288;42.970;1.524;2023-07-02T06:04:15;3.50;;;1.63;;
53389;SDS011;39288;42.970;1.524;2023-07-02T06:05:15;8.07;;;1.47;;
53389;SDS011;39288;42.970;1.524;2023-07-02T06:06:16;3.90;;;2.00;;
53389;SDS011;39288;42.970;1.524;2023-07-02T06:07:16;3.67;;;1.70;;
53389;SDS011;39288;42.970;1.524;2023-07-02T06:08:17;3.13;;;1.30;;
53389;SDS011;39288;42.970;1.524;2023-07-02T06:09:18;2.63;;;1.50;;
53389;SDS011;39288;42.970;1.524;2023-07-02T06:10:18;3.37;;;1.20;;